sensor_id;sensor_type;location;lat;lon;timestamp;P1;durP1;ratioP1;P2;durP2;ratioP2
19679;SDS011;9989;48.962;9.182;2023-04-29T00:01:38;9.63;;;5.27;;
19679;SDS011;9989;48.962;9.182;2023-04-29T00:04:04;8.67;;;5.00;;
19679;SDS011;9989;48.962;9.182;2023-04-29T00:06:29;9.40;;;5.40;;
19679;SDS011;9989;48.962;9.182;2023-04-29T00:08:55;12.10;;;5.57;;
19679;SDS011;9989;48.962;9.182;2023-04-29T00:11:21;9.80;;;4.90;;
19679;SDS011;9989;48.962;9.182;2023-04-29T00:13:46;8.33;;;4.53;;
19679;SDS011;9989;48.962;9.182;2023-04-29T00:16:12;10.00;;;5.80;;
19679;SDS011;9989;48.962;9.182;2023-04-29T00:18:37;9.70;;;5.30;;
19679;SDS011;9989;48.962;9.182;2023-04-29T00:21:03;10.50;;;6.13;;
19679;SDS011;9989;48.962;9.182;2023-04-29T00:23:32;10.20;;;6.00;;
19679;SDS011;9989;48.962;9.182;2023-04-29T00:25:59;10.47;;;5.87;;
19679;SDS011;9989;48.962;9.182;2023-04-29T00:28:25;9.17;;;5.27;;
19679;SDS011;9989;48.962;9.182;2023-04-29T00:30:50;9.47;;;5.10;;
19679;SDS011;9989;48.962;9.182;2023-04-29T00:33:17;8.67;;;4.80;;
19679;SDS011;9989;48.962;9.182;2023-04-29T00:35:43;9.40;;;5.17;;
19679;SDS011;9989;48.962;9.182;2023-04-29T00:38:09;8.37;;;4.63;;
19679;SDS011;9989;48.962;9.182;2023-04-29T00:40:34;16.13;;;5.83;;
19679;SDS011;9989;48.962;9.182;2023-04-29T00:43:00;10.50;;;6.27;;
19679;SDS011;9989;48.962;9.182;2023-04-29T00:45:26;10.13;;;5.73;;
19679;SDS011;9989;48.962;9.182;2023-04-29T00:47:51;9.60;;;5.40;;
19679;SDS011;9989;48.962;9.182;2023-04-29T00:50:17;9.60;;;5.13;;
19679;SDS011;9989;48.962;9.182;2023-04-29T00:52:43;10.80;;;5.97;;
19679;SDS011;9989;48.962;9.182;2023-04-29T00:55:09;9.70;;;5.20;;
19679;SDS011;9989;48.962;9.182;2023-04-29T00:57:38;8.67;;;5.07;;
19679;SDS011;9989;48.962;9.182;2023-04-29T01:00:04;9.13;;;4.70;;
19679;SDS011;9989;48.962;9.182;2023-04-29T01:02:30;8.40;;;4.87;;
19679;SDS011;9989;48.962;9.182;2023-04-29T01:04:57;9.23;;;5.07;;
19679;SDS011;9989;48.962;9.182;2023-04-29T01:07:28;9.70;;;4.77;;
19679;SDS011;9989;48.962;9.182;2023-04-29T01:12:50;9.23;;;5.03;;
19679;SDS011;9989;48.962;9.182;2023-04-29T01:15:31;10.83;;;5.93;;
19679;SDS011;9989;48.962;9.182;2023-04-29T01:18:19;9.63;;;4.93;;
19679;SDS011;9989;48.962;9.182;2023-04-29T01:20:54;8.57;;;4.60;;
19679;SDS011;9989;48.962;9.182;2023-04-29T01:23:28;10.20;;;5.33;;
19679;SDS011;9989;48.962;9.182;2023-04-29T01:25:54;10.03;;;5.40;;
19679;SDS011;9989;48.962;9.182;2023-04-29T01:31:16;9.83;;;5.10;;
19679;SDS011;9989;48.962;9.182;2023-04-29T01:33:58;9.13;;;4.60;;
19679;SDS011;9989;48.962;9.182;2023-04-29T01:39:13;9.77;;;5.20;;
19679;SDS011;9989;48.962;9.182;2023-04-29T01:41:50;9.27;;;5.27;;
19679;SDS011;9989;48.962;9.182;2023-04-29T01:44:22;10.00;;;5.17;;
19679;SDS011;9989;48.962;9.182;2023-04-29T01:46:50;10.03;;;4.90;;
19679;SDS011;9989;48.962;9.182;2023-04-29T01:49:21;9.87;;;5.00;;
19679;SDS011;9989;48.962;9.182;2023-04-29T01:51:49;9.80;;;4.70;;
19679;SDS011;9989;48.962;9.182;2023-04-29T01:54:15;8.63;;;4.43;;
19679;SDS011;9989;48.962;9.182;2023-04-29T01:56:41;11.10;;;5.57;;
19679;SDS011;9989;48.962;9.182;2023-04-29T01:59:07;9.90;;;5.30;;
19679;SDS011;9989;48.962;9.182;2023-04-29T02:01:32;9.20;;;4.73;;
19679;SDS011;9989;48.962;9.182;2023-04-29T02:03:58;9.37;;;5.10;;
19679;SDS011;9989;48.962;9.182;2023-04-29T02:06:24;8.90;;;4.90;;
19679;SDS011;9989;48.962;9.182;2023-04-29T02:08:50;9.63;;;5.10;;
19679;SDS011;9989;48.962;9.182;2023-04-29T02:11:16;8.90;;;5.30;;
19679;SDS011;9989;48.962;9.182;2023-04-29T02:13:41;10.77;;;6.13;;
19679;SDS011;9989;48.962;9.182;2023-04-29T02:16:10;8.60;;;4.80;;
19679;SDS011;9989;48.962;9.182;2023-04-29T02:18:37;12.83;;;4.87;;
19679;SDS011;9989;48.962;9.182;2023-04-29T02:21:04;9.50;;;4.77;;
19679;SDS011;9989;48.962;9.182;2023-04-29T02:23:30;8.87;;;5.10;;
19679;SDS011;9989;48.962;9.182;2023-04-29T02:25:55;9.63;;;4.80;;
19679;SDS011;9989;48.962;9.182;2023-04-29T02:28:21;10.13;;;5.27;;
19679;SDS011;9989;48.962;9.182;2023-04-29T02:30:47;9.43;;;4.90;;
19679;SDS011;9989;48.962;9.182;2023-04-29T02:33:13;10.43;;;5.17;;
19679;SDS011;9989;48.962;9.182;2023-04-29T02:35:40;8.23;;;4.23;;
19679;SDS011;9989;48.962;9.182;2023-04-29T02:38:06;8.37;;;4.30;;
19679;SDS011;9989;48.962;9.182;2023-04-29T02:40:31;8.50;;;4.53;;
19679;SDS011;9989;48.962;9.182;2023-04-29T02:42:57;9.00;;;4.93;;
19679;SDS011;9989;48.962;9.182;2023-04-29T02:45:22;7.90;;;4.13;;
19679;SDS011;9989;48.962;9.182;2023-04-29T02:47:48;9.43;;;4.37;;
19679;SDS011;9989;48.962;9.182;2023-04-29T02:50:14;8.73;;;4.47;;
19679;SDS011;9989;48.962;9.182;2023-04-29T02:52:39;9.13;;;4.53;;
19679;SDS011;9989;48.962;9.182;2023-04-29T02:55:06;9.03;;;5.37;;
19679;SDS011;9989;48.962;9.182;2023-04-29T02:57:32;8.87;;;4.63;;
19679;SDS011;9989;48.962;9.182;2023-04-29T02:59:58;8.73;;;4.90;;
19679;SDS011;9989;48.962;9.182;2023-04-29T03:02:24;8.70;;;4.23;;
19679;SDS011;9989;48.962;9.182;2023-04-29T03:04:50;9.20;;;4.70;;
19679;SDS011;9989;48.962;9.182;2023-04-29T03:07:16;8.80;;;4.63;;
19679;SDS011;9989;48.962;9.182;2023-04-29T03:09:42;8.83;;;4.47;;
19679;SDS011;9989;48.962;9.182;2023-04-29T03:15:29;7.63;;;3.93;;
19679;SDS011;9989;48.962;9.182;2023-04-29T03:17:55;8.70;;;4.40;;
19679;SDS011;9989;48.962;9.182;2023-04-29T03:20:20;10.00;;;4.50;;
19679;SDS011;9989;48.962;9.182;2023-04-29T03:22:46;9.97;;;5.30;;
19679;SDS011;9989;48.962;9.182;2023-04-29T03:25:11;10.17;;;5.23;;
19679;SDS011;9989;48.962;9.182;2023-04-29T03:27:37;9.77;;;5.00;;
19679;SDS011;9989;48.962;9.182;2023-04-29T03:30:03;9.40;;;5.10;;
19679;SDS011;9989;48.962;9.182;2023-04-29T03:32:29;9.67;;;5.23;;
19679;SDS011;9989;48.962;9.182;2023-04-29T03:34:55;10.30;;;5.50;;
19679;SDS011;9989;48.962;9.182;2023-04-29T03:37:21;9.80;;;4.57;;
19679;SDS011;9989;48.962;9.182;2023-04-29T03:39:47;9.57;;;5.10;;
19679;SDS011;9989;48.962;9.182;2023-04-29T03:42:12;9.40;;;5.23;;
19679;SDS011;9989;48.962;9.182;2023-04-29T03:44:38;9.47;;;4.97;;
19679;SDS011;9989;48.962;9.182;2023-04-29T03:47:04;8.50;;;4.27;;
19679;SDS011;9989;48.962;9.182;2023-04-29T03:49:30;9.80;;;5.40;;
19679;SDS011;9989;48.962;9.182;2023-04-29T03:51:56;11.60;;;5.70;;
19679;SDS011;9989;48.962;9.182;2023-04-29T03:54:21;10.20;;;4.87;;
19679;SDS011;9989;48.962;9.182;2023-04-29T03:56:47;9.10;;;4.73;;
19679;SDS011;9989;48.962;9.182;2023-04-29T03:59:13;8.43;;;4.60;;
19679;SDS011;9989;48.962;9.182;2023-04-29T04:01:38;9.00;;;5.00;;
19679;SDS011;9989;48.962;9.182;2023-04-29T04:04:04;8.10;;;4.70;;
19679;SDS011;9989;48.962;9.182;2023-04-29T04:06:29;9.20;;;5.10;;
19679;SDS011;9989;48.962;9.182;2023-04-29T04:08:55;9.33;;;4.80;;
19679;SDS011;9989;48.962;9.182;2023-04-29T04:11:21;9.57;;;4.93;;
19679;SDS011;9989;48.962;9.182;2023-04-29T04:13:46;9.53;;;4.57;;
19679;SDS011;9989;48.962;9.182;2023-04-29T04:16:13;9.30;;;4.57;;
19679;SDS011;9989;48.962;9.182;2023-04-29T04:18:39;7.63;;;3.90;;
19679;SDS011;9989;48.962;9.182;2023-04-29T04:21:05;11.07;;;4.77;;
19679;SDS011;9989;48.962;9.182;2023-04-29T04:23:32;8.47;;;4.70;;
19679;SDS011;9989;48.962;9.182;2023-04-29T04:25:57;7.60;;;4.00;;
19679;SDS011;9989;48.962;9.182;2023-04-29T04:28:23;8.10;;;4.37;;
19679;SDS011;9989;48.962;9.182;2023-04-29T04:30:49;7.70;;;4.20;;
19679;SDS011;9989;48.962;9.182;2023-04-29T04:33:14;9.70;;;4.50;;
19679;SDS011;9989;48.962;9.182;2023-04-29T04:35:40;7.53;;;3.77;;
19679;SDS011;9989;48.962;9.182;2023-04-29T04:38:06;7.70;;;3.60;;
19679;SDS011;9989;48.962;9.182;2023-04-29T04:40:33;7.50;;;3.80;;
19679;SDS011;9989;48.962;9.182;2023-04-29T04:42:58;7.03;;;3.60;;
19679;SDS011;9989;48.962;9.182;2023-04-29T04:45:24;7.20;;;3.60;;
19679;SDS011;9989;48.962;9.182;2023-04-29T04:47:52;6.97;;;3.60;;
19679;SDS011;9989;48.962;9.182;2023-04-29T04:50:18;7.57;;;3.97;;
19679;SDS011;9989;48.962;9.182;2023-04-29T04:52:44;7.93;;;3.70;;
19679;SDS011;9989;48.962;9.182;2023-04-29T04:55:10;6.17;;;3.00;;
19679;SDS011;9989;48.962;9.182;2023-04-29T04:57:35;6.37;;;3.30;;
19679;SDS011;9989;48.962;9.182;2023-04-29T05:00:01;5.97;;;3.00;;
19679;SDS011;9989;48.962;9.182;2023-04-29T05:02:28;6.20;;;3.30;;
19679;SDS011;9989;48.962;9.182;2023-04-29T05:04:53;7.03;;;3.63;;
19679;SDS011;9989;48.962;9.182;2023-04-29T05:07:19;8.40;;;4.57;;
19679;SDS011;9989;48.962;9.182;2023-04-29T05:09:45;7.93;;;4.57;;
19679;SDS011;9989;48.962;9.182;2023-04-29T05:15:29;10.47;;;4.60;;
19679;SDS011;9989;48.962;9.182;2023-04-29T05:17:54;9.03;;;4.87;;
19679;SDS011;9989;48.962;9.182;2023-04-29T05:20:20;8.10;;;4.40;;
19679;SDS011;9989;48.962;9.182;2023-04-29T05:22:46;9.63;;;5.63;;
19679;SDS011;9989;48.962;9.182;2023-04-29T05:25:11;9.83;;;5.20;;
19679;SDS011;9989;48.962;9.182;2023-04-29T05:27:37;9.17;;;5.23;;
19679;SDS011;9989;48.962;9.182;2023-04-29T05:30:04;9.83;;;5.17;;
19679;SDS011;9989;48.962;9.182;2023-04-29T05:32:30;9.97;;;5.10;;
19679;SDS011;9989;48.962;9.182;2023-04-29T05:34:55;8.00;;;4.33;;
19679;SDS011;9989;48.962;9.182;2023-04-29T05:37:21;11.77;;;5.73;;
19679;SDS011;9989;48.962;9.182;2023-04-29T05:39:46;9.60;;;5.50;;
19679;SDS011;9989;48.962;9.182;2023-04-29T05:42:12;9.13;;;5.57;;
19679;SDS011;9989;48.962;9.182;2023-04-29T05:44:37;10.23;;;5.53;;
19679;SDS011;9989;48.962;9.182;2023-04-29T05:47:04;9.40;;;5.23;;
19679;SDS011;9989;48.962;9.182;2023-04-29T05:49:29;11.37;;;5.43;;
19679;SDS011;9989;48.962;9.182;2023-04-29T05:51:55;9.47;;;5.47;;
19679;SDS011;9989;48.962;9.182;2023-04-29T05:54:20;10.13;;;5.97;;
19679;SDS011;9989;48.962;9.182;2023-04-29T05:56:46;9.10;;;5.20;;
19679;SDS011;9989;48.962;9.182;2023-04-29T05:59:12;8.50;;;5.13;;
19679;SDS011;9989;48.962;9.182;2023-04-29T06:01:37;12.83;;;6.00;;
19679;SDS011;9989;48.962;9.182;2023-04-29T06:04:03;9.03;;;5.00;;
19679;SDS011;9989;48.962;9.182;2023-04-29T06:06:28;10.50;;;5.80;;
19679;SDS011;9989;48.962;9.182;2023-04-29T06:08:54;10.43;;;5.93;;
19679;SDS011;9989;48.962;9.182;2023-04-29T06:11:19;10.80;;;5.70;;
19679;SDS011;9989;48.962;9.182;2023-04-29T06:13:46;10.80;;;5.20;;
19679;SDS011;9989;48.962;9.182;2023-04-29T06:16:11;11.20;;;5.80;;
19679;SDS011;9989;48.962;9.182;2023-04-29T06:18:37;10.30;;;6.17;;
19679;SDS011;9989;48.962;9.182;2023-04-29T06:21:03;10.67;;;5.77;;
19679;SDS011;9989;48.962;9.182;2023-04-29T06:23:29;9.20;;;5.33;;
19679;SDS011;9989;48.962;9.182;2023-04-29T06:25:56;13.43;;;5.90;;
19679;SDS011;9989;48.962;9.182;2023-04-29T06:28:22;8.00;;;4.80;;
19679;SDS011;9989;48.962;9.182;2023-04-29T06:30:47;10.17;;;5.30;;
19679;SDS011;9989;48.962;9.182;2023-04-29T06:33:14;8.60;;;5.23;;
19679;SDS011;9989;48.962;9.182;2023-04-29T06:35:39;9.53;;;5.47;;
19679;SDS011;9989;48.962;9.182;2023-04-29T06:38:05;8.57;;;4.80;;
19679;SDS011;9989;48.962;9.182;2023-04-29T06:40:34;8.40;;;5.07;;
19679;SDS011;9989;48.962;9.182;2023-04-29T06:42:59;8.73;;;4.63;;
19679;SDS011;9989;48.962;9.182;2023-04-29T06:45:26;7.70;;;4.53;;
19679;SDS011;9989;48.962;9.182;2023-04-29T06:47:52;8.93;;;5.10;;
19679;SDS011;9989;48.962;9.182;2023-04-29T06:50:17;8.50;;;4.67;;
19679;SDS011;9989;48.962;9.182;2023-04-29T06:52:43;8.93;;;4.07;;
19679;SDS011;9989;48.962;9.182;2023-04-29T06:55:08;7.70;;;4.27;;
19679;SDS011;9989;48.962;9.182;2023-04-29T06:57:35;9.70;;;4.60;;
19679;SDS011;9989;48.962;9.182;2023-04-29T07:00:01;16.13;;;5.00;;
19679;SDS011;9989;48.962;9.182;2023-04-29T07:02:27;8.43;;;4.10;;
19679;SDS011;9989;48.962;9.182;2023-04-29T07:04:53;8.77;;;4.53;;
19679;SDS011;9989;48.962;9.182;2023-04-29T07:07:19;8.07;;;3.77;;
19679;SDS011;9989;48.962;9.182;2023-04-29T07:09:44;9.67;;;4.40;;
19679;SDS011;9989;48.962;9.182;2023-04-29T07:15:10;6.80;;;3.57;;
19679;SDS011;9989;48.962;9.182;2023-04-29T07:17:35;8.63;;;3.67;;
19679;SDS011;9989;48.962;9.182;2023-04-29T07:20:01;7.17;;;3.50;;
19679;SDS011;9989;48.962;9.182;2023-04-29T07:22:28;7.17;;;3.50;;
19679;SDS011;9989;48.962;9.182;2023-04-29T07:24:53;7.27;;;3.90;;
19679;SDS011;9989;48.962;9.182;2023-04-29T07:27:19;6.93;;;3.50;;
19679;SDS011;9989;48.962;9.182;2023-04-29T07:29:45;6.60;;;3.43;;
19679;SDS011;9989;48.962;9.182;2023-04-29T07:32:11;8.00;;;3.33;;
19679;SDS011;9989;48.962;9.182;2023-04-29T07:34:37;9.37;;;4.00;;
19679;SDS011;9989;48.962;9.182;2023-04-29T07:37:03;7.13;;;3.73;;
19679;SDS011;9989;48.962;9.182;2023-04-29T07:39:28;7.37;;;4.07;;
19679;SDS011;9989;48.962;9.182;2023-04-29T07:41:54;6.77;;;3.70;;
19679;SDS011;9989;48.962;9.182;2023-04-29T07:44:20;6.73;;;3.90;;
19679;SDS011;9989;48.962;9.182;2023-04-29T07:46:46;7.43;;;3.50;;
19679;SDS011;9989;48.962;9.182;2023-04-29T07:49:12;7.83;;;3.40;;
19679;SDS011;9989;48.962;9.182;2023-04-29T07:51:40;6.80;;;3.40;;
19679;SDS011;9989;48.962;9.182;2023-04-29T07:54:06;7.37;;;3.73;;
19679;SDS011;9989;48.962;9.182;2023-04-29T07:56:32;7.00;;;3.27;;
19679;SDS011;9989;48.962;9.182;2023-04-29T07:59:00;5.80;;;2.80;;
19679;SDS011;9989;48.962;9.182;2023-04-29T08:01:26;5.90;;;3.00;;
19679;SDS011;9989;48.962;9.182;2023-04-29T08:03:52;8.33;;;3.23;;
19679;SDS011;9989;48.962;9.182;2023-04-29T08:06:18;6.63;;;3.30;;
19679;SDS011;9989;48.962;9.182;2023-04-29T08:08:46;7.23;;;3.27;;
19679;SDS011;9989;48.962;9.182;2023-04-29T08:11:18;6.00;;;3.23;;
19679;SDS011;9989;48.962;9.182;2023-04-29T08:13:45;7.03;;;2.97;;
19679;SDS011;9989;48.962;9.182;2023-04-29T08:16:11;6.37;;;3.13;;
19679;SDS011;9989;48.962;9.182;2023-04-29T08:18:38;5.97;;;3.00;;
19679;SDS011;9989;48.962;9.182;2023-04-29T08:21:03;5.97;;;2.60;;
19679;SDS011;9989;48.962;9.182;2023-04-29T08:23:29;6.73;;;3.40;;
19679;SDS011;9989;48.962;9.182;2023-04-29T08:25:55;7.07;;;3.33;;
19679;SDS011;9989;48.962;9.182;2023-04-29T08:28:20;8.83;;;3.27;;
19679;SDS011;9989;48.962;9.182;2023-04-29T08:30:46;6.83;;;3.10;;
19679;SDS011;9989;48.962;9.182;2023-04-29T08:33:12;6.73;;;3.27;;
19679;SDS011;9989;48.962;9.182;2023-04-29T08:35:38;6.83;;;3.30;;
19679;SDS011;9989;48.962;9.182;2023-04-29T08:51:40;8.67;;;3.63;;
19679;SDS011;9989;48.962;9.182;2023-04-29T08:54:05;7.77;;;3.90;;
19679;SDS011;9989;48.962;9.182;2023-04-29T08:56:32;8.67;;;4.40;;
19679;SDS011;9989;48.962;9.182;2023-04-29T08:58:58;9.30;;;3.90;;
19679;SDS011;9989;48.962;9.182;2023-04-29T09:01:26;7.90;;;3.73;;
19679;SDS011;9989;48.962;9.182;2023-04-29T09:04:02;8.17;;;3.90;;
19679;SDS011;9989;48.962;9.182;2023-04-29T09:06:34;7.83;;;3.60;;
19679;SDS011;9989;48.962;9.182;2023-04-29T09:08:59;6.80;;;3.57;;
19679;SDS011;9989;48.962;9.182;2023-04-29T09:11:27;7.27;;;3.23;;
19679;SDS011;9989;48.962;9.182;2023-04-29T09:14:00;6.70;;;3.10;;
19679;SDS011;9989;48.962;9.182;2023-04-29T09:16:27;7.37;;;4.00;;
19679;SDS011;9989;48.962;9.182;2023-04-29T09:18:53;7.03;;;3.10;;
19679;SDS011;9989;48.962;9.182;2023-04-29T09:23:46;7.20;;;3.23;;
19679;SDS011;9989;48.962;9.182;2023-04-29T09:26:14;7.43;;;3.70;;
19679;SDS011;9989;48.962;9.182;2023-04-29T09:28:40;7.23;;;3.40;;
19679;SDS011;9989;48.962;9.182;2023-04-29T09:31:08;6.57;;;3.23;;
19679;SDS011;9989;48.962;9.182;2023-04-29T09:33:51;6.47;;;3.00;;
19679;SDS011;9989;48.962;9.182;2023-04-29T09:39:06;8.40;;;3.63;;
19679;SDS011;9989;48.962;9.182;2023-04-29T09:44:17;7.80;;;4.23;;
19679;SDS011;9989;48.962;9.182;2023-04-29T09:47:06;8.07;;;4.03;;
19679;SDS011;9989;48.962;9.182;2023-04-29T09:49:38;9.57;;;4.10;;
19679;SDS011;9989;48.962;9.182;2023-04-29T09:52:10;7.60;;;4.20;;
19679;SDS011;9989;48.962;9.182;2023-04-29T09:54:37;8.77;;;4.50;;
19679;SDS011;9989;48.962;9.182;2023-04-29T09:57:05;7.63;;;3.93;;
19679;SDS011;9989;48.962;9.182;2023-04-29T09:59:32;8.67;;;4.50;;
19679;SDS011;9989;48.962;9.182;2023-04-29T10:02:00;7.73;;;3.53;;
19679;SDS011;9989;48.962;9.182;2023-04-29T10:04:31;7.47;;;3.90;;
19679;SDS011;9989;48.962;9.182;2023-04-29T10:06:58;8.87;;;4.17;;
19679;SDS011;9989;48.962;9.182;2023-04-29T10:09:25;10.07;;;5.10;;
19679;SDS011;9989;48.962;9.182;2023-04-29T10:11:52;10.33;;;5.00;;
19679;SDS011;9989;48.962;9.182;2023-04-29T10:14:19;10.77;;;5.87;;
19679;SDS011;9989;48.962;9.182;2023-04-29T10:16:53;9.77;;;5.90;;
19679;SDS011;9989;48.962;9.182;2023-04-29T10:19:31;9.40;;;5.30;;
19679;SDS011;9989;48.962;9.182;2023-04-29T10:22:06;9.57;;;5.47;;
19679;SDS011;9989;48.962;9.182;2023-04-29T10:24:37;10.13;;;5.03;;
19679;SDS011;9989;48.962;9.182;2023-04-29T10:27:07;10.97;;;5.60;;
19679;SDS011;9989;48.962;9.182;2023-04-29T10:29:36;10.13;;;5.80;;
19679;SDS011;9989;48.962;9.182;2023-04-29T10:32:06;11.27;;;6.43;;
19679;SDS011;9989;48.962;9.182;2023-04-29T10:34:33;14.93;;;7.97;;
19679;SDS011;9989;48.962;9.182;2023-04-29T10:37:01;11.83;;;6.87;;
19679;SDS011;9989;48.962;9.182;2023-04-29T10:39:35;12.53;;;7.50;;
19679;SDS011;9989;48.962;9.182;2023-04-29T10:42:15;12.67;;;7.90;;
19679;SDS011;9989;48.962;9.182;2023-04-29T10:50:39;14.17;;;7.30;;
19679;SDS011;9989;48.962;9.182;2023-04-29T10:53:23;12.93;;;6.97;;
19679;SDS011;9989;48.962;9.182;2023-04-29T10:55:58;13.70;;;8.07;;
19679;SDS011;9989;48.962;9.182;2023-04-29T10:58:35;12.63;;;7.73;;
19679;SDS011;9989;48.962;9.182;2023-04-29T11:01:09;12.50;;;7.43;;
19679;SDS011;9989;48.962;9.182;2023-04-29T11:06:20;12.53;;;6.97;;
19679;SDS011;9989;48.962;9.182;2023-04-29T11:08:58;11.13;;;6.80;;
19679;SDS011;9989;48.962;9.182;2023-04-29T11:11:39;11.37;;;6.57;;
19679;SDS011;9989;48.962;9.182;2023-04-29T11:14:36;9.83;;;5.87;;
19679;SDS011;9989;48.962;9.182;2023-04-29T11:17:07;13.53;;;6.57;;
19679;SDS011;9989;48.962;9.182;2023-04-29T11:19:41;11.60;;;6.87;;
19679;SDS011;9989;48.962;9.182;2023-04-29T11:24:53;12.50;;;7.17;;
19679;SDS011;9989;48.962;9.182;2023-04-29T11:27:21;13.73;;;6.40;;
19679;SDS011;9989;48.962;9.182;2023-04-29T11:29:52;13.20;;;7.77;;
19679;SDS011;9989;48.962;9.182;2023-04-29T11:32:26;11.97;;;7.10;;
19679;SDS011;9989;48.962;9.182;2023-04-29T11:34:52;10.93;;;6.10;;
19679;SDS011;9989;48.962;9.182;2023-04-29T11:37:19;11.47;;;7.30;;
19679;SDS011;9989;48.962;9.182;2023-04-29T11:39:48;13.00;;;6.87;;
19679;SDS011;9989;48.962;9.182;2023-04-29T11:42:18;13.47;;;7.37;;
19679;SDS011;9989;48.962;9.182;2023-04-29T11:44:45;12.60;;;7.10;;
19679;SDS011;9989;48.962;9.182;2023-04-29T11:47:10;18.17;;;8.03;;
19679;SDS011;9989;48.962;9.182;2023-04-29T11:49:36;13.90;;;6.37;;
19679;SDS011;9989;48.962;9.182;2023-04-29T11:52:02;12.40;;;7.47;;
19679;SDS011;9989;48.962;9.182;2023-04-29T11:54:28;14.43;;;6.17;;
19679;SDS011;9989;48.962;9.182;2023-04-29T11:56:54;15.67;;;7.07;;
19679;SDS011;9989;48.962;9.182;2023-04-29T11:59:21;15.33;;;7.53;;
19679;SDS011;9989;48.962;9.182;2023-04-29T12:01:48;13.10;;;7.23;;
19679;SDS011;9989;48.962;9.182;2023-04-29T12:04:14;11.73;;;6.80;;
19679;SDS011;9989;48.962;9.182;2023-04-29T12:06:40;10.83;;;6.13;;
19679;SDS011;9989;48.962;9.182;2023-04-29T12:09:06;12.23;;;6.90;;
19679;SDS011;9989;48.962;9.182;2023-04-29T12:11:32;12.03;;;6.97;;
19679;SDS011;9989;48.962;9.182;2023-04-29T12:13:59;11.60;;;6.17;;
19679;SDS011;9989;48.962;9.182;2023-04-29T12:16:30;13.77;;;6.70;;
19679;SDS011;9989;48.962;9.182;2023-04-29T12:18:57;12.57;;;6.80;;
19679;SDS011;9989;48.962;9.182;2023-04-29T12:21:23;10.37;;;5.70;;
19679;SDS011;9989;48.962;9.182;2023-04-29T12:23:52;11.33;;;6.50;;
19679;SDS011;9989;48.962;9.182;2023-04-29T12:26:18;12.60;;;6.70;;
19679;SDS011;9989;48.962;9.182;2023-04-29T12:28:47;11.03;;;6.50;;
19679;SDS011;9989;48.962;9.182;2023-04-29T12:31:17;12.07;;;6.30;;
19679;SDS011;9989;48.962;9.182;2023-04-29T12:33:43;13.23;;;7.10;;
19679;SDS011;9989;48.962;9.182;2023-04-29T12:36:18;12.03;;;6.67;;
19679;SDS011;9989;48.962;9.182;2023-04-29T12:38:44;11.43;;;6.00;;
19679;SDS011;9989;48.962;9.182;2023-04-29T12:41:11;12.77;;;6.20;;
19679;SDS011;9989;48.962;9.182;2023-04-29T12:43:38;11.23;;;5.53;;
19679;SDS011;9989;48.962;9.182;2023-04-29T12:46:06;11.87;;;6.33;;
19679;SDS011;9989;48.962;9.182;2023-04-29T12:48:33;13.30;;;6.47;;
19679;SDS011;9989;48.962;9.182;2023-04-29T12:51:01;12.27;;;7.30;;
19679;SDS011;9989;48.962;9.182;2023-04-29T12:53:28;11.53;;;6.23;;
19679;SDS011;9989;48.962;9.182;2023-04-29T12:55:54;11.83;;;7.13;;
19679;SDS011;9989;48.962;9.182;2023-04-29T12:58:19;11.03;;;6.67;;
19679;SDS011;9989;48.962;9.182;2023-04-29T13:00:45;12.13;;;6.70;;
19679;SDS011;9989;48.962;9.182;2023-04-29T13:03:11;14.77;;;7.60;;
19679;SDS011;9989;48.962;9.182;2023-04-29T13:05:36;12.20;;;6.70;;
19679;SDS011;9989;48.962;9.182;2023-04-29T13:08:02;13.63;;;6.43;;
19679;SDS011;9989;48.962;9.182;2023-04-29T13:10:30;14.23;;;7.43;;
19679;SDS011;9989;48.962;9.182;2023-04-29T13:12:57;12.93;;;7.00;;
19679;SDS011;9989;48.962;9.182;2023-04-29T13:15:23;12.73;;;6.47;;
19679;SDS011;9989;48.962;9.182;2023-04-29T13:17:49;13.30;;;7.07;;
19679;SDS011;9989;48.962;9.182;2023-04-29T13:20:15;13.23;;;7.20;;
19679;SDS011;9989;48.962;9.182;2023-04-29T13:22:41;12.20;;;6.50;;
19679;SDS011;9989;48.962;9.182;2023-04-29T13:25:08;12.37;;;6.73;;
19679;SDS011;9989;48.962;9.182;2023-04-29T13:27:35;12.30;;;6.90;;
19679;SDS011;9989;48.962;9.182;2023-04-29T13:30:02;10.80;;;5.80;;
19679;SDS011;9989;48.962;9.182;2023-04-29T13:32:29;11.97;;;6.07;;
19679;SDS011;9989;48.962;9.182;2023-04-29T13:34:54;11.60;;;6.07;;
19679;SDS011;9989;48.962;9.182;2023-04-29T13:37:20;12.83;;;6.70;;
19679;SDS011;9989;48.962;9.182;2023-04-29T13:39:46;12.53;;;6.67;;
19679;SDS011;9989;48.962;9.182;2023-04-29T13:42:11;10.30;;;6.07;;
19679;SDS011;9989;48.962;9.182;2023-04-29T13:44:37;12.33;;;6.37;;
19679;SDS011;9989;48.962;9.182;2023-04-29T13:47:07;11.37;;;6.33;;
19679;SDS011;9989;48.962;9.182;2023-04-29T13:49:39;11.17;;;5.97;;
19679;SDS011;9989;48.962;9.182;2023-04-29T13:52:06;12.20;;;6.43;;
19679;SDS011;9989;48.962;9.182;2023-04-29T13:54:32;12.87;;;6.77;;
19679;SDS011;9989;48.962;9.182;2023-04-29T13:56:58;11.30;;;5.90;;
19679;SDS011;9989;48.962;9.182;2023-04-29T13:59:25;13.13;;;6.53;;
19679;SDS011;9989;48.962;9.182;2023-04-29T14:01:50;11.53;;;6.30;;
19679;SDS011;9989;48.962;9.182;2023-04-29T14:04:17;11.90;;;5.77;;
19679;SDS011;9989;48.962;9.182;2023-04-29T14:06:42;12.87;;;6.37;;
19679;SDS011;9989;48.962;9.182;2023-04-29T14:09:11;10.23;;;5.03;;
19679;SDS011;9989;48.962;9.182;2023-04-29T14:11:36;10.60;;;5.77;;
19679;SDS011;9989;48.962;9.182;2023-04-29T14:14:02;11.30;;;6.07;;
19679;SDS011;9989;48.962;9.182;2023-04-29T14:16:28;10.93;;;5.73;;
19679;SDS011;9989;48.962;9.182;2023-04-29T14:18:54;12.80;;;6.60;;
19679;SDS011;9989;48.962;9.182;2023-04-29T14:21:20;12.27;;;6.57;;
19679;SDS011;9989;48.962;9.182;2023-04-29T14:23:46;12.90;;;6.63;;
19679;SDS011;9989;48.962;9.182;2023-04-29T14:26:12;16.20;;;9.37;;
19679;SDS011;9989;48.962;9.182;2023-04-29T14:28:38;12.93;;;7.03;;
19679;SDS011;9989;48.962;9.182;2023-04-29T14:31:04;11.70;;;6.43;;
19679;SDS011;9989;48.962;9.182;2023-04-29T14:33:30;13.57;;;6.63;;
19679;SDS011;9989;48.962;9.182;2023-04-29T14:35:55;12.77;;;6.33;;
19679;SDS011;9989;48.962;9.182;2023-04-29T14:38:21;10.43;;;5.37;;
19679;SDS011;9989;48.962;9.182;2023-04-29T14:40:47;30.40;;;7.77;;
19679;SDS011;9989;48.962;9.182;2023-04-29T14:43:13;13.43;;;6.93;;
19679;SDS011;9989;48.962;9.182;2023-04-29T14:45:38;11.60;;;5.80;;
19679;SDS011;9989;48.962;9.182;2023-04-29T14:48:04;10.60;;;6.13;;
19679;SDS011;9989;48.962;9.182;2023-04-29T14:50:30;12.37;;;5.97;;
19679;SDS011;9989;48.962;9.182;2023-04-29T14:52:55;11.27;;;5.87;;
19679;SDS011;9989;48.962;9.182;2023-04-29T14:55:22;11.30;;;5.70;;
19679;SDS011;9989;48.962;9.182;2023-04-29T14:57:47;9.67;;;5.57;;
19679;SDS011;9989;48.962;9.182;2023-04-29T15:00:13;10.23;;;5.47;;
19679;SDS011;9989;48.962;9.182;2023-04-29T15:02:39;10.77;;;6.27;;
19679;SDS011;9989;48.962;9.182;2023-04-29T15:05:05;10.80;;;5.97;;
19679;SDS011;9989;48.962;9.182;2023-04-29T15:07:31;10.93;;;5.40;;
19679;SDS011;9989;48.962;9.182;2023-04-29T15:09:57;11.27;;;5.60;;
19679;SDS011;9989;48.962;9.182;2023-04-29T15:12:22;10.67;;;5.60;;
19679;SDS011;9989;48.962;9.182;2023-04-29T15:14:48;12.07;;;6.60;;
19679;SDS011;9989;48.962;9.182;2023-04-29T15:17:14;11.07;;;5.43;;
19679;SDS011;9989;48.962;9.182;2023-04-29T15:19:40;11.13;;;5.73;;
19679;SDS011;9989;48.962;9.182;2023-04-29T15:22:05;9.87;;;5.23;;
19679;SDS011;9989;48.962;9.182;2023-04-29T15:24:31;9.93;;;5.43;;
19679;SDS011;9989;48.962;9.182;2023-04-29T15:26:56;11.83;;;5.57;;
19679;SDS011;9989;48.962;9.182;2023-04-29T15:29:22;12.93;;;6.40;;
19679;SDS011;9989;48.962;9.182;2023-04-29T15:31:48;12.23;;;5.50;;
19679;SDS011;9989;48.962;9.182;2023-04-29T15:34:13;11.23;;;6.37;;
19679;SDS011;9989;48.962;9.182;2023-04-29T15:36:39;10.07;;;5.40;;
19679;SDS011;9989;48.962;9.182;2023-04-29T15:39:06;10.20;;;5.80;;
19679;SDS011;9989;48.962;9.182;2023-04-29T15:41:34;12.33;;;6.47;;
19679;SDS011;9989;48.962;9.182;2023-04-29T15:44:01;11.33;;;6.13;;
19679;SDS011;9989;48.962;9.182;2023-04-29T15:46:28;10.17;;;5.13;;